UTTT/TAS METAR and TAF weather

Enter ICAO airport designator
Station Type Date Time Source
UTTT METAR 2020/11/25 22:30 UTC NOAA

UTTT 252230Z 08008KT 2200 BR NSC M04/M06 Q1027 R08R/CLRD70 NOSIG


Station Type Date Time Source
UTTT Decoded METAR 2020/11/25 22:30 UTC NOAA

Tashkent, Uzbekistan (UTTT) 41-16N 069-16E 488M
Nov 25, 2020 - 05:30 PM EST / 2020.11.25 2230 UTC
Wind: from the E (080 degrees) at 9 MPH (8 KT):0
Visibility: 1 mile(s):0
Weather: mist
Temperature: 24 F (-4 C)
Windchill: 14 F (-10 C):1
Dew Point: 21 F (-6 C)
Relative Humidity: 85%
Pressure (altimeter): 30.33 in. Hg (1027 hPa)
ob: UTTT 252230Z 08008KT 2200 BR NSC M04/M06 Q1027 R08R/CLRD70 NOSIG
cycle: 22

Station Type Date Time Source
UTTT TAF 2020/11/25 18:09 UTC NOAA

TAF UTTT 251700Z 2518/2618 07008KT 4000 BR FU NSC
TEMPO 2518/2604 VRB02KT 0500 FZFG VV003

Example: see airport list